Time;durP1;ratioP1;P1;durP2;ratioP2;P2;SDS_P1;SDS_P2;PMS_P1;PMS_P2;Temp;Humidity;BMP_temperature;BMP_pressure;BME280_temperature;BME280_humidity;BME280_pressure;Samples;Min_cycle;Max_cycle;Signal;HPM_P1;HPM_P2
2023/12/09 00:01:52;;;;;;;48.50;23.30;;;;;;;-1.41;100.00;101008.61;105358;1262;101405;-77
2023/12/09 00:04:37;;;;;;;53.40;23.10;;;;;;;-1.40;100.00;101008.38;105056;1268;99129;-78
2023/12/09 00:07:23;;;;;;;57.80;25.10;;;;;;;-1.37;100.00;101001.51;105216;1264;99033;-78
2023/12/09 00:10:09;;;;;;;63.50;27.30;;;;;;;-1.35;100.00;101001.40;105190;1266;99148;-77
2023/12/09 00:12:54;;;;;;;54.00;25.00;;;;;;;-1.34;100.00;101000.79;105199;1264;97965;-77
2023/12/09 00:15:40;;;;;;;63.40;26.20;;;;;;;-1.33;100.00;101003.72;105145;1262;101366;-77
2023/12/09 00:18:26;;;;;;;57.30;24.80;;;;;;;-1.35;100.00;101006.30;105204;1267;99214;-78
2023/12/09 00:21:11;;;;;;;59.40;25.30;;;;;;;-1.37;100.00;101004.53;105204;1268;99290;-78
2023/12/09 00:23:58;;;;;;;57.10;25.80;;;;;;;-1.42;100.00;101004.30;105193;1267;97913;-78
2023/12/09 00:26:44;;;;;;;50.50;23.70;;;;;;;-1.41;100.00;101007.10;105176;1275;97964;-77
2023/12/09 00:29:30;;;;;;;66.80;28.00;;;;;;;-1.40;100.00;101005.73;105103;1267;101361;-78
2023/12/09 00:32:15;;;;;;;50.60;25.60;;;;;;;-1.38;100.00;101004.04;105162;1265;100452;-78
2023/12/09 00:35:01;;;;;;;49.30;22.00;;;;;;;-1.38;100.00;101005.27;105289;1267;98900;-78
2023/12/09 00:37:47;;;;;;;57.10;25.10;;;;;;;-1.35;100.00;101002.83;105147;1264;98848;-76
2023/12/09 00:40:32;;;;;;;57.30;26.80;;;;;;;-1.34;100.00;101001.50;105060;1262;98490;-78
2023/12/09 00:43:18;;;;;;;55.30;25.00;;;;;;;-1.37;100.00;101001.91;105275;1275;101451;-78
2023/12/09 00:46:04;;;;;;;49.40;23.40;;;;;;;-1.39;100.00;101000.25;105465;1267;100381;-79
2023/12/09 00:48:49;;;;;;;56.30;25.50;;;;;;;-1.37;100.00;100996.67;105566;1267;98725;-78
2023/12/09 00:51:35;;;;;;;56.90;25.00;;;;;;;-1.37;100.00;100993.48;105305;1275;97969;-78
2023/12/09 00:54:20;;;;;;;59.60;25.90;;;;;;;-1.38;100.00;100993.20;105221;1268;98413;-77
2023/12/09 00:57:06;;;;;;;51.30;23.60;;;;;;;-1.39;100.00;100993.82;105172;1267;101354;-78
2023/12/09 00:59:51;;;;;;;55.00;23.20;;;;;;;-1.41;100.00;100994.77;105174;1275;99163;-78
2023/12/09 01:02:39;;;;;;;54.80;25.00;;;;;;;-1.42;100.00;100994.71;105112;1267;98073;-78
2023/12/09 01:05:24;;;;;;;48.60;21.70;;;;;;;-1.43;100.00;100988.80;105205;1265;98118;-77
2023/12/09 01:08:10;;;;;;;48.50;21.00;;;;;;;-1.45;100.00;100990.33;105308;1267;98694;-78
2023/12/09 01:10:55;;;;;;;49.00;21.80;;;;;;;-1.45;100.00;100996.85;105456;1267;102632;-78
2023/12/09 01:13:41;;;;;;;48.70;22.50;;;;;;;-1.43;100.00;100997.27;105430;1267;99249;-79
2023/12/09 01:16:26;;;;;;;55.20;23.70;;;;;;;-1.41;100.00;100993.20;105183;1278;99191;-78
2023/12/09 01:19:12;;;;;;;48.70;23.00;;;;;;;-1.40;100.00;100993.48;105363;1267;97934;-79
2023/12/09 01:21:57;;;;;;;50.60;21.00;;;;;;;-1.40;100.00;100988.45;105409;1267;98464;-78
2023/12/09 01:24:43;;;;;;;39.50;19.90;;;;;;;-1.43;100.00;100983.36;105452;1269;102781;-78
2023/12/09 01:27:29;;;;;;;54.30;22.60;;;;;;;-1.46;100.00;100981.46;105518;1264;99323;-79
2023/12/09 01:30:14;;;;;;;51.10;22.30;;;;;;;-1.48;100.00;100981.44;105258;1264;98604;-77
2023/12/09 01:33:00;;;;;;;49.30;20.70;;;;;;;-1.46;100.00;100977.09;105107;1267;97988;-78
2023/12/09 01:35:45;;;;;;;52.50;23.00;;;;;;;-1.43;100.00;100974.09;105194;1267;97977;-76
2023/12/09 01:38:31;;;;;;;51.20;22.00;;;;;;;-1.45;100.00;100967.41;105057;1264;101419;-78
2023/12/09 01:41:16;;;;;;;53.30;22.50;;;;;;;-1.45;100.00;100969.67;105202;1267;99234;-78
2023/12/09 01:44:02;;;;;;;50.50;22.80;;;;;;;-1.42;100.00;100971.59;105256;1264;98816;-78
2023/12/09 01:46:49;;;;;;;59.30;24.40;;;;;;;-1.42;100.00;100964.36;105130;1267;98034;-77
2023/12/09 01:49:36;;;;;;;57.20;21.90;;;;;;;-1.41;100.00;100959.58;105262;1266;98477;-78
2023/12/09 01:52:21;;;;;;;56.30;23.70;;;;;;;-1.39;100.00;100955.05;105203;1266;102643;-77
2023/12/09 01:55:10;;;;;;;56.80;25.10;;;;;;;-1.39;100.00;100951.95;105234;1266;99161;-77
2023/12/09 01:57:55;;;;;;;51.90;22.00;;;;;;;-1.41;100.00;100956.75;105156;1264;98464;-78
2023/12/09 02:00:42;;;;;;;56.20;22.40;;;;;;;-1.41;100.00;100955.92;105171;1267;98226;-78
2023/12/09 02:03:31;;;;;;;58.80;23.70;;;;;;;-1.41;100.00;100953.27;105222;1267;98064;-78
2023/12/09 02:06:16;;;;;;;65.70;26.70;;;;;;;-1.41;100.00;100952.38;105166;1264;102690;-77
2023/12/09 02:09:03;;;;;;;54.30;22.90;;;;;;;-1.42;100.00;100948.13;105184;1270;100349;-78
2023/12/09 02:12:07;;;;;;;60.00;25.60;;;;;;;-1.44;100.00;100948.95;105190;1267;98423;-77
2023/12/09 02:15:06;;;;;;;55.50;24.00;;;;;;;-1.43;100.00;100954.61;105157;1264;98035;-78
2023/12/09 02:17:57;;;;;;;59.50;24.80;;;;;;;-1.40;100.00;100953.35;105081;1267;98548;-78
2023/12/09 02:20:43;;;;;;;65.80;26.70;;;;;;;-1.37;100.00;100952.15;105105;1264;101358;-77
2023/12/09 02:23:28;;;;;;;67.80;24.60;;;;;;;-1.38;100.00;100951.70;105169;1264;100778;-77
2023/12/09 02:26:20;;;;;;;58.60;24.30;;;;;;;-1.40;100.00;100952.33;105137;1267;99025;-76
2023/12/09 02:29:08;;;;;;;66.20;26.60;;;;;;;-1.41;100.00;100960.50;105182;1267;97986;-78
2023/12/09 02:32:02;;;;;;;63.00;25.70;;;;;;;-1.40;100.00;100956.74;105191;1266;98722;-77
2023/12/09 02:34:49;;;;;;;58.10;23.60;;;;;;;-1.38;100.00;100948.18;105161;1267;101349;-77
2023/12/09 02:37:37;;;;;;;56.00;24.20;;;;;;;-1.38;100.00;100945.70;105186;1266;100368;-77
2023/12/09 02:40:23;;;;;;;62.00;23.10;;;;;;;-1.39;100.00;100948.20;105381;1264;97981;-79
2023/12/09 02:43:09;;;;;;;61.00;24.90;;;;;;;-1.38;100.00;100945.37;105435;1263;97933;-78
2023/12/09 02:45:55;;;;;;;60.90;25.40;;;;;;;-1.36;100.00;100951.70;105468;1264;98496;-79
2023/12/09 02:48:41;;;;;;;59.30;23.80;;;;;;;-1.36;100.00;100952.42;105483;1264;101495;-78
2023/12/09 02:51:26;;;;;;;62.20;25.90;;;;;;;-1.34;100.00;100959.81;105287;1275;99067;-78
2023/12/09 02:54:12;;;;;;;65.90;24.60;;;;;;;-1.32;100.00;100962.66;105169;1264;98973;-77
2023/12/09 02:56:57;;;;;;;68.90;26.80;;;;;;;-1.30;100.00;100962.20;105135;1267;97963;-78
2023/12/09 02:59:43;;;;;;;67.40;24.50;;;;;;;-1.28;100.00;100955.41;105198;1264;98012;-77
2023/12/09 03:02:29;;;;;;;64.50;25.70;;;;;;;-1.26;100.00;100952.24;105187;1267;101835;-78
2023/12/09 03:05:15;;;;;;;60.30;24.90;;;;;;;-1.24;100.00;100945.81;105178;1264;101312;-78
2023/12/09 03:08:00;;;;;;;68.00;28.70;;;;;;;-1.25;100.00;100941.45;105195;1266;98117;-77
2023/12/09 03:10:46;;;;;;;63.00;24.00;;;;;;;-1.25;100.00;100948.16;105365;1266;97987;-78
2023/12/09 03:13:31;;;;;;;58.20;23.90;;;;;;;-1.26;100.00;100955.05;105457;1264;98500;-77
2023/12/09 03:16:17;;;;;;;57.80;25.80;;;;;;;-1.27;100.00;100953.22;105387;1266;101403;-77
2023/12/09 03:19:02;;;;;;;64.30;26.10;;;;;;;-1.29;100.00;100951.23;105366;1266;100703;-78
2023/12/09 03:21:48;;;;;;;64.10;25.50;;;;;;;-1.28;100.00;100950.48;105347;1267;98075;-78
2023/12/09 03:24:33;;;;;;;65.30;25.40;;;;;;;-1.28;100.00;100946.78;105193;1266;97983;-78
2023/12/09 03:27:19;;;;;;;66.40;26.30;;;;;;;-1.26;100.00;100947.90;105217;1262;98511;-77
2023/12/09 03:30:05;;;;;;;64.40;24.70;;;;;;;-1.21;100.00;100937.23;105387;1262;102579;-78
2023/12/09 03:32:51;;;;;;;70.60;27.50;;;;;;;-1.18;100.00;100931.77;105985;1262;100363;-78
2023/12/09 03:35:37;;;;;;;63.30;25.70;;;;;;;-1.17;100.00;100927.82;105251;1278;98045;-78
2023/12/09 03:38:22;;;;;;;65.80;25.30;;;;;;;-1.16;100.00;100929.17;105204;1262;97952;-78
2023/12/09 03:41:08;;;;;;;70.50;26.30;;;;;;;-1.15;100.00;100929.59;104990;1264;98060;-79
2023/12/09 03:43:54;;;;;;;64.50;25.60;;;;;;;-1.13;100.00;100930.88;105382;1267;101446;-79
2023/12/09 03:46:40;;;;;;;65.30;26.80;;;;;;;-1.13;100.00;100927.16;105152;1264;99295;-77
2023/12/09 03:49:25;;;;;;;65.00;25.80;;;;;;;-1.14;100.00;100927.58;105084;1264;99013;-78
2023/12/09 03:52:11;;;;;;;62.10;25.30;;;;;;;-1.13;100.00;100925.63;105225;1267;97963;-78
2023/12/09 03:54:56;;;;;;;63.20;25.20;;;;;;;-1.12;100.00;100926.59;105091;1264;98513;-79
2023/12/09 03:57:42;;;;;;;66.10;25.50;;;;;;;-1.10;100.00;100929.29;105217;1267;101488;-77
2023/12/09 04:00:29;;;;;;;61.30;23.70;;;;;;;-1.12;100.00;100929.95;105321;1263;99122;-79
2023/12/09 04:03:15;;;;;;;57.90;24.10;;;;;;;-1.15;100.00;100931.05;105412;1262;98452;-78
2023/12/09 04:06:03;;;;;;;61.20;23.00;;;;;;;-1.17;100.00;100924.46;105325;1263;97909;-78
2023/12/09 04:08:49;;;;;;;56.60;22.40;;;;;;;-1.17;100.00;100913.06;105513;1266;97780;-77
2023/12/09 04:11:34;;;;;;;55.50;24.50;;;;;;;-1.16;100.00;100909.91;105440;1267;102444;-79
2023/12/09 04:14:19;;;;;;;57.20;23.20;;;;;;;-1.17;100.00;100905.56;105424;1266;99126;-78
2023/12/09 04:17:05;;;;;;;59.20;23.20;;;;;;;-1.17;100.00;100908.17;105398;1267;99007;-79
2023/12/09 04:19:51;;;;;;;58.30;23.90;;;;;;;-1.14;100.00;100907.61;105273;1267;97880;-78
2023/12/09 04:22:38;;;;;;;60.80;24.10;;;;;;;-1.12;100.00;100908.52;105246;1262;98035;-78
2023/12/09 04:25:24;;;;;;;56.90;21.80;;;;;;;-1.11;100.00;100908.44;105582;1264;102052;-77
2023/12/09 04:28:11;;;;;;;60.40;24.00;;;;;;;-1.12;100.00;100905.74;105213;1264;99136;-78
2023/12/09 04:30:57;;;;;;;55.70;23.90;;;;;;;-1.11;100.00;100901.27;105116;1267;98096;-78
2023/12/09 04:33:45;;;;;;;51.30;20.30;;;;;;;-1.09;100.00;100899.04;105145;1262;97874;-77
2023/12/09 04:36:31;;;;;;;58.40;23.90;;;;;;;-1.07;100.00;100892.23;105203;1262;99954;-78
2023/12/09 04:39:16;;;;;;;49.70;23.20;;;;;;;-1.07;100.00;100886.10;105294;1267;101973;-77
2023/12/09 04:42:02;;;;;;;49.30;20.50;;;;;;;-1.06;100.00;100885.33;105251;1262;100204;-77
2023/12/09 04:44:48;;;;;;;60.90;23.60;;;;;;;-1.06;100.00;100879.57;105251;1267;98769;-78
2023/12/09 04:47:33;;;;;;;51.90;23.00;;;;;;;-1.07;100.00;100876.11;105249;1262;97798;-78
2023/12/09 04:50:19;;;;;;;51.60;24.80;;;;;;;-1.08;100.00;100876.67;105155;1267;98506;-78
2023/12/09 04:53:04;;;;;;;56.20;21.10;;;;;;;-1.09;100.00;100874.50;105411;1267;102691;-78
2023/12/09 04:55:50;;;;;;;51.30;22.00;;;;;;;-1.09;100.00;100875.72;105431;1262;100234;-78
2023/12/09 04:58:36;;;;;;;50.90;20.30;;;;;;;-1.08;100.00;100871.43;105443;1262;99089;-78
2023/12/09 05:01:21;;;;;;;52.80;21.60;;;;;;;-1.06;100.00;100868.71;105461;1266;97879;-78
2023/12/09 05:04:08;;;;;;;53.00;20.60;;;;;;;-1.07;100.00;100860.73;105564;1262;97820;-77
2023/12/09 05:06:53;;;;;;;57.50;24.20;;;;;;;-1.07;100.00;100862.13;105571;1262;101611;-78
2023/12/09 05:09:39;;;;;;;51.20;22.60;;;;;;;-1.08;100.00;100862.34;105506;1265;99882;-79
2023/12/09 05:12:25;;;;;;;48.90;21.60;;;;;;;-1.10;100.00;100861.23;105492;1262;97915;-78
2023/12/09 05:15:11;;;;;;;54.50;23.50;;;;;;;-1.09;100.00;100864.14;105407;1262;98740;-78
2023/12/09 05:17:57;;;;;;;55.30;21.80;;;;;;;-1.06;100.00;100863.98;105499;1262;98625;-78
2023/12/09 05:20:44;;;;;;;54.10;22.30;;;;;;;-1.04;100.00;100863.27;105429;1266;101319;-78
2023/12/09 05:23:29;;;;;;;61.10;23.50;;;;;;;-1.01;100.00;100860.80;105329;1264;99141;-77
2023/12/09 05:26:25;;;;;;;64.20;27.90;;;;;;;-1.01;100.00;100860.95;105108;1264;99241;-78
2023/12/09 05:29:11;;;;;;;68.10;26.00;;;;;;;-1.00;100.00;100854.77;105149;1262;97979;-77
2023/12/09 05:31:57;;;;;;;76.30;30.80;;;;;;;-1.00;100.00;100854.40;105074;1264;98586;-78
2023/12/09 05:34:42;;;;;;;84.80;35.40;;;;;;;-0.98;100.00;100856.05;104978;1262;101352;-76
2023/12/09 05:37:28;;;;;;;88.60;33.70;;;;;;;-0.98;100.00;100857.80;104960;1265;99227;-78
2023/12/09 05:40:13;;;;;;;87.70;33.90;;;;;;;-0.99;100.00;100854.34;105100;1262;98721;-78
2023/12/09 05:42:59;;;;;;;85.60;32.80;;;;;;;-1.00;100.00;100858.63;105151;1266;97978;-78
2023/12/09 05:45:45;;;;;;;89.20;31.70;;;;;;;-1.03;100.00;100860.57;105240;1262;98889;-78
2023/12/09 05:48:34;;;;;;;99.80;33.80;;;;;;;-1.04;100.00;100855.40;105305;1264;102003;-78
2023/12/09 05:51:20;;;;;;;96.90;34.90;;;;;;;-1.06;100.00;100854.50;105239;1266;99105;-78
2023/12/09 05:54:06;;;;;;;106.10;37.80;;;;;;;-1.08;100.00;100853.92;105219;1266;98728;-78
2023/12/09 05:56:51;;;;;;;100.20;35.40;;;;;;;-1.10;100.00;100854.75;105430;1267;98346;-78
2023/12/09 05:59:37;;;;;;;90.40;33.20;;;;;;;-1.12;100.00;100858.80;105606;1264;97897;-79
2023/12/09 06:02:23;;;;;;;92.10;33.20;;;;;;;-1.12;100.00;100857.36;105504;1267;101358;-78
2023/12/09 06:05:09;;;;;;;93.30;33.50;;;;;;;-1.11;100.00;100858.52;105475;1262;99287;-78
2023/12/09 06:07:54;;;;;;;94.10;35.20;;;;;;;-1.12;100.00;100856.69;105463;1267;98491;-78
2023/12/09 06:10:40;;;;;;;105.90;37.50;;;;;;;-1.13;100.00;100856.20;105542;1262;97970;-79
2023/12/09 06:13:26;;;;;;;109.90;39.80;;;;;;;-1.15;100.00;100853.23;105485;1266;97897;-78
2023/12/09 06:16:18;;;;;;;116.80;40.40;;;;;;;-1.17;100.00;100855.48;105469;1262;102614;-77
2023/12/09 06:19:03;;;;;;;102.10;38.10;;;;;;;-1.20;100.00;100853.75;105594;1264;100079;-78
2023/12/09 06:21:49;;;;;;;105.40;36.10;;;;;;;-1.18;100.00;100847.85;105468;1266;99263;-77
2023/12/09 06:24:35;;;;;;;101.10;35.20;;;;;;;-1.16;100.00;100850.80;105215;1267;99264;-77
2023/12/09 06:27:20;;;;;;;106.50;36.90;;;;;;;-1.13;100.00;100847.80;105369;1264;98454;-78
2023/12/09 06:30:08;;;;;;;103.30;33.90;;;;;;;-1.11;100.00;100842.20;105133;1266;102646;-78
2023/12/09 06:32:54;;;;;;;90.90;34.40;;;;;;;-1.11;100.00;100846.07;105329;1264;100331;-78
2023/12/09 06:35:39;;;;;;;106.40;36.60;;;;;;;-1.13;100.00;100848.86;105275;1266;97987;-78
2023/12/09 06:38:25;;;;;;;106.80;35.20;;;;;;;-1.14;100.00;100844.36;105209;1262;97980;-78
2023/12/09 06:41:11;;;;;;;103.80;34.60;;;;;;;-1.12;100.00;100843.01;105174;1262;97973;-78
2023/12/09 06:43:56;;;;;;;101.40;36.90;;;;;;;-1.11;100.00;100840.48;105293;1262;102153;-78
2023/12/09 06:46:42;;;;;;;106.00;36.80;;;;;;;-1.11;100.00;100836.48;105228;1262;100513;-78
2023/12/09 06:49:27;;;;;;;104.00;36.30;;;;;;;-1.12;100.00;100831.95;105256;1267;97826;-77
2023/12/09 06:52:13;;;;;;;105.60;36.40;;;;;;;-1.13;100.00;100838.51;105234;1267;97991;-77
2023/12/09 06:54:59;;;;;;;97.30;34.10;;;;;;;-1.14;100.00;100842.63;105203;1264;98067;-78
2023/12/09 06:57:45;;;;;;;92.20;34.80;;;;;;;-1.13;100.00;100844.13;105142;1264;102188;-77
2023/12/09 07:00:31;;;;;;;102.10;34.80;;;;;;;-1.13;100.00;100845.73;105181;1267;99288;-78
2023/12/09 07:03:16;;;;;;;93.80;33.40;;;;;;;-1.14;100.00;100847.17;105127;1262;98397;-78
2023/12/09 07:06:04;;;;;;;91.20;33.80;;;;;;;-1.14;100.00;100846.80;105273;1267;98040;-78
2023/12/09 07:08:52;;;;;;;92.60;31.70;;;;;;;-1.15;100.00;100847.60;105453;1264;98477;-79
2023/12/09 07:11:38;;;;;;;93.60;34.20;;;;;;;-1.16;100.00;100851.73;105585;1262;102351;-78
2023/12/09 07:14:23;;;;;;;103.20;34.50;;;;;;;-1.16;100.00;100850.30;105572;1262;100379;-77
2023/12/09 07:17:10;;;;;;;102.80;35.50;;;;;;;-1.15;100.00;100846.36;105099;1262;97988;-77
2023/12/09 07:19:56;;;;;;;109.80;38.80;;;;;;;-1.14;100.00;100845.08;105163;1267;97983;-78
2023/12/09 07:22:42;;;;;;;101.60;35.90;;;;;;;-1.13;100.00;100844.50;105288;1262;98467;-77
2023/12/09 07:25:28;;;;;;;96.00;32.40;;;;;;;-1.13;100.00;100836.58;105188;1267;102646;-77
2023/12/09 07:28:14;;;;;;;97.20;33.00;;;;;;;-1.12;100.00;100834.63;105134;1262;99219;-77
2023/12/09 07:31:00;;;;;;;91.00;34.60;;;;;;;-1.12;100.00;100842.79;105130;1262;98751;-78
2023/12/09 07:33:45;;;;;;;110.00;41.40;;;;;;;-1.10;100.00;100841.78;105152;1267;97900;-78
2023/12/09 07:36:31;;;;;;;95.40;35.30;;;;;;;-1.08;100.00;100834.82;105095;1267;98512;-78
2023/12/09 07:39:17;;;;;;;94.90;34.10;;;;;;;-1.06;100.00;100841.02;105192;1262;101391;-78
2023/12/09 07:42:03;;;;;;;113.90;40.50;;;;;;;-1.07;100.00;100839.32;105204;1263;99114;-78
2023/12/09 07:44:49;;;;;;;101.10;36.70;;;;;;;-1.07;100.00;100834.04;105179;1262;97716;-78
2023/12/09 07:47:34;;;;;;;108.30;39.30;;;;;;;-1.07;100.00;100835.48;105160;1262;98044;-77
2023/12/09 07:50:20;;;;;;;101.10;36.90;;;;;;;-1.07;100.00;100836.70;105064;1262;100895;-78
2023/12/09 07:53:05;;;;;;;104.00;34.70;;;;;;;-1.07;100.00;100842.80;105180;1265;101336;-78
2023/12/09 07:55:51;;;;;;;94.00;33.80;;;;;;;-1.07;100.00;100841.21;105255;1266;100365;-78
2023/12/09 07:58:36;;;;;;;101.90;35.30;;;;;;;-1.06;100.00;100833.44;105182;1262;98013;-77
2023/12/09 08:01:22;;;;;;;91.80;34.20;;;;;;;-1.04;100.00;100835.58;105190;1265;97976;-78
2023/12/09 08:04:07;;;;;;;123.60;42.30;;;;;;;-0.98;100.00;100831.10;105250;1267;97658;-78
2023/12/09 08:06:54;;;;;;;153.50;57.90;;;;;;;-0.91;100.00;100827.15;105114;1262;102719;-79
2023/12/09 08:09:39;;;;;;;123.60;48.80;;;;;;;-0.88;100.00;100822.16;105299;1262;100717;-78
2023/12/09 08:12:25;;;;;;;121.50;46.80;;;;;;;-0.86;100.00;100814.66;105206;1262;98009;-78
2023/12/09 08:15:10;;;;;;;107.10;42.60;;;;;;;-0.85;100.00;100811.09;105189;1266;97924;-78
2023/12/09 08:17:57;;;;;;;100.50;38.50;;;;;;;-0.83;100.00;100810.10;105189;1266;98057;-78
2023/12/09 08:20:42;;;;;;;105.80;38.30;;;;;;;-0.83;100.00;100804.42;105314;1262;102037;-78
2023/12/09 08:23:29;;;;;;;99.30;38.90;;;;;;;-0.82;100.00;100805.23;105285;1262;99127;-78
2023/12/09 08:26:17;;;;;;;125.90;58.50;;;;;;;-0.79;100.00;100803.79;105435;1262;97984;-86
2023/12/09 08:29:08;;;;;;;412.00;178.30;;;;;;;-0.74;100.00;100807.71;106126;1266;97957;-84
2023/12/09 08:31:54;;;;;;;400.40;162.40;;;;;;;-0.70;100.00;100810.70;106063;1267;99279;-81
2023/12/09 08:34:39;;;;;;;136.40;59.10;;;;;;;-0.66;100.00;100808.84;105965;1262;102110;-81
2023/12/09 08:37:25;;;;;;;179.00;73.60;;;;;;;-0.63;100.00;100806.85;105780;1267;99158;-82
2023/12/09 08:40:11;;;;;;;309.70;136.80;;;;;;;-0.62;100.00;100810.47;105912;1267;97990;-80
2023/12/09 08:42:57;;;;;;;164.60;69.10;;;;;;;-0.59;100.00;100814.86;105875;1262;98081;-83
2023/12/09 08:45:43;;;;;;;156.90;62.60;;;;;;;-0.56;100.00;100814.27;105804;1262;97898;-83
2023/12/09 08:48:29;;;;;;;138.70;50.90;;;;;;;-0.53;100.00;100808.10;105826;1262;101440;-80
2023/12/09 08:51:14;;;;;;;156.90;58.70;;;;;;;-0.51;100.00;100803.75;105872;1262;99097;-82
2023/12/09 08:54:00;;;;;;;194.90;71.20;;;;;;;-0.49;100.00;100797.58;106061;1264;98837;-85
2023/12/09 08:56:46;;;;;;;142.20;56.00;;;;;;;-0.44;100.00;100796.15;106016;1264;98073;-86
2023/12/09 08:59:32;;;;;;;154.40;55.20;;;;;;;-0.40;100.00;100793.09;105808;1261;98491;-83
2023/12/09 09:02:17;;;;;;;257.90;96.40;;;;;;;-0.37;100.00;100788.63;105780;1264;101434;-83
2023/12/09 09:05:03;;;;;;;128.80;51.00;;;;;;;-0.33;100.00;100784.98;105821;1262;99804;-82
2023/12/09 09:07:49;;;;;;;104.40;39.20;;;;;;;-0.30;100.00;100785.30;105881;1262;98026;-80
2023/12/09 09:10:35;;;;;;;179.50;63.40;;;;;;;-0.30;100.00;100781.27;105821;1262;97999;-80
2023/12/09 09:13:20;;;;;;;288.20;124.80;;;;;;;-0.26;100.00;100779.39;105781;1262;98442;-80
2023/12/09 09:16:07;;;;;;;139.70;56.30;;;;;;;-0.22;100.00;100768.88;105818;1266;102581;-79
2023/12/09 09:18:52;;;;;;;108.40;41.80;;;;;;;-0.18;100.00;100762.63;105754;1264;99152;-78
2023/12/09 09:21:40;;;;;;;118.30;47.30;;;;;;;-0.12;100.00;100757.63;105681;1262;97793;-79
2023/12/09 09:24:26;;;;;;;141.50;64.70;;;;;;;-0.06;100.00;100752.80;105756;1262;98751;-86
2023/12/09 09:27:12;;;;;;;124.50;57.90;;;;;;;-0.01;100.00;100750.10;106125;1267;98458;-85
2023/12/09 09:29:58;;;;;;;111.60;49.10;;;;;;;0.03;100.00;100744.02;105705;1264;101485;-84
2023/12/09 09:32:44;;;;;;;105.90;40.40;;;;;;;0.05;100.00;100741.77;105761;1262;99211;-82
2023/12/09 09:35:29;;;;;;;92.30;36.50;;;;;;;0.06;100.00;100739.06;105638;1262;97930;-82
2023/12/09 09:38:15;;;;;;;92.20;36.10;;;;;;;0.08;100.00;100740.12;105665;1262;97981;-85
2023/12/09 09:41:09;;;;;;;101.60;42.10;;;;;;;0.09;100.00;100734.80;105845;1262;97966;-83
2023/12/09 09:44:07;;;;;;;105.80;45.50;;;;;;;0.13;100.00;100726.02;106240;1262;102775;-89
2023/12/09 09:46:56;;;;;;;116.70;46.20;;;;;;;0.18;100.00;100715.32;106130;1262;99164;-82
2023/12/09 09:49:46;;;;;;;123.80;48.40;;;;;;;0.22;100.00;100715.70;105813;1262;97926;-82
2023/12/09 09:52:35;;;;;;;94.70;37.00;;;;;;;0.25;100.00;100712.23;105818;1262;98006;-80
2023/12/09 09:55:25;;;;;;;121.30;48.00;;;;;;;0.28;100.00;100715.38;106349;1262;98555;-83
2023/12/09 09:58:12;;;;;;;84.80;35.40;;;;;;;0.30;100.00;100718.02;105674;1262;101456;-81
2023/12/09 10:01:02;;;;;;;94.60;36.00;;;;;;;0.31;100.00;100716.51;105821;1265;100321;-88
2023/12/09 10:03:48;;;;;;;114.50;44.10;;;;;;;0.33;100.00;100713.93;105621;1262;97962;-80
2023/12/09 10:06:34;;;;;;;104.10;43.00;;;;;;;0.35;100.00;100712.36;106022;1262;97993;-82
2023/12/09 10:09:20;;;;;;;88.90;38.90;;;;;;;0.38;100.00;100710.05;105736;1262;98035;-84
2023/12/09 10:12:06;;;;;;;92.90;37.80;;;;;;;0.40;100.00;100708.25;106182;1262;102665;-80
2023/12/09 10:14:52;;;;;;;89.40;36.00;;;;;;;0.43;100.00;100707.19;105992;1262;99090;-80
2023/12/09 10:17:38;;;;;;;97.10;40.30;;;;;;;0.44;100.00;100705.34;105863;1262;97981;-79
2023/12/09 10:20:24;;;;;;;82.20;33.50;;;;;;;0.48;100.00;100702.77;106025;1262;98143;-80
2023/12/09 10:23:09;;;;;;;82.90;34.00;;;;;;;0.49;100.00;100699.32;105978;1262;97901;-80
2023/12/09 10:25:55;;;;;;;77.40;32.80;;;;;;;0.50;100.00;100698.38;106042;1266;102719;-80
2023/12/09 10:28:41;;;;;;;79.80;33.40;;;;;;;0.51;100.00;100691.26;105846;1262;100405;-79
2023/12/09 10:31:27;;;;;;;72.90;31.40;;;;;;;0.53;100.00;100689.35;105344;1262;98061;-79
2023/12/09 10:34:13;;;;;;;83.00;34.80;;;;;;;0.52;100.00;100687.96;105479;1266;98003;-79
2023/12/09 10:36:58;;;;;;;79.70;34.50;;;;;;;0.53;100.00;100679.50;105373;1267;97962;-79
2023/12/09 10:39:49;;;;;;;79.80;35.20;;;;;;;0.56;100.00;100680.48;105469;1267;101333;-79
2023/12/09 10:42:38;;;;;;;81.10;35.00;;;;;;;0.57;100.00;100676.37;105443;1266;100079;-79
2023/12/09 10:45:23;;;;;;;79.50;34.80;;;;;;;0.58;100.00;100668.36;105401;1262;98064;-78
2023/12/09 10:48:09;;;;;;;78.90;34.10;;;;;;;0.59;100.00;100664.63;105472;1264;97967;-78
2023/12/09 10:50:55;;;;;;;83.40;37.20;;;;;;;0.60;100.00;100660.52;105454;1266;98507;-79
2023/12/09 10:53:41;;;;;;;78.50;33.40;;;;;;;0.62;100.00;100656.09;105583;1277;101403;-79
2023/12/09 10:56:27;;;;;;;77.60;34.20;;;;;;;0.65;100.00;100656.59;105452;1266;99108;-79
2023/12/09 10:59:13;;;;;;;73.80;34.10;;;;;;;0.67;100.00;100655.90;105504;1262;97901;-80
2023/12/09 11:02:00;;;;;;;70.30;33.80;;;;;;;0.69;100.00;100655.02;105526;1264;97899;-79
2023/12/09 11:04:48;;;;;;;76.60;33.90;;;;;;;0.70;100.00;100657.04;105888;1262;97968;-78
2023/12/09 11:07:36;;;;;;;82.40;33.60;;;;;;;0.74;100.00;100656.91;105372;1262;101417;-78
2023/12/09 11:10:21;;;;;;;78.10;35.70;;;;;;;0.78;100.00;100653.73;105192;1266;99604;-79
2023/12/09 11:13:07;;;;;;;75.50;36.80;;;;;;;0.81;100.00;100653.20;105289;1262;98867;-82
2023/12/09 11:16:11;;;;;;;74.50;35.60;;;;;;;0.81;100.00;100648.94;105605;1267;98298;-83
2023/12/09 11:18:58;;;;;;;78.70;37.20;;;;;;;0.84;100.00;100648.21;105607;1264;98759;-83
2023/12/09 11:21:45;;;;;;;70.60;33.90;;;;;;;0.85;100.00;100650.00;105888;1262;101611;-83
2023/12/09 11:24:32;;;;;;;87.80;37.60;;;;;;;0.89;100.00;100647.46;105952;1266;100176;-82
2023/12/09 11:27:20;;;;;;;73.20;33.70;;;;;;;0.91;100.00;100646.38;105678;1262;100033;-83
2023/12/09 11:30:39;;;;;;;79.00;37.30;;;;;;;0.94;100.00;100648.81;105840;1265;98551;-82
2023/12/09 11:33:25;;;;;;;72.80;37.10;;;;;;;0.97;100.00;100648.39;105923;1262;97964;-81
2023/12/09 11:36:11;;;;;;;78.60;34.60;;;;;;;1.00;100.00;100647.61;105735;1267;101438;-83
2023/12/09 11:38:58;;;;;;;85.00;37.80;;;;;;;1.01;100.00;100643.79;106085;1267;100033;-84
2023/12/09 11:41:45;;;;;;;76.40;36.30;;;;;;;1.03;100.00;100643.51;105192;1262;98024;-85
2023/12/09 11:44:31;;;;;;;74.10;36.10;;;;;;;1.04;100.00;100641.79;105724;1264;97887;-81
2023/12/09 11:47:19;;;;;;;78.80;35.60;;;;;;;1.07;100.00;100637.13;106153;1262;97823;-78
2023/12/09 11:50:07;;;;;;;79.20;39.00;;;;;;;1.09;100.00;100631.13;106228;1267;102563;-81
2023/12/09 11:52:53;;;;;;;84.70;37.40;;;;;;;1.13;100.00;100629.81;106582;1262;99228;-88
2023/12/09 11:55:40;;;;;;;75.70;36.10;;;;;;;1.14;100.00;100629.52;106730;1264;97895;-88
2023/12/09 11:58:26;;;;;;;72.20;34.20;;;;;;;1.15;100.00;100628.06;106260;1262;98164;-87
2023/12/09 12:01:13;;;;;;;75.80;35.50;;;;;;;1.15;100.00;100627.29;106276;1267;97805;-81
2023/12/09 12:03:58;;;;;;;74.60;36.10;;;;;;;1.16;100.00;100623.55;106029;1267;101552;-82
2023/12/09 12:06:44;;;;;;;72.60;36.50;;;;;;;1.16;100.00;100617.89;105957;1265;99849;-77
2023/12/09 12:09:30;;;;;;;77.70;37.80;;;;;;;1.16;100.00;100611.77;104913;1262;98563;-76
2023/12/09 12:12:17;;;;;;;81.60;38.60;;;;;;;1.15;100.00;100614.19;104809;1265;98058;-77
2023/12/09 12:15:03;;;;;;;84.10;38.00;;;;;;;1.12;100.00;100618.80;105041;1262;99571;-76
2023/12/09 12:17:48;;;;;;;80.70;40.20;;;;;;;1.10;100.00;100617.00;104816;1267;101368;-76